createdAt,value
2018-05-10T00:02:18.251Z,59.89
2018-05-10T00:04:44.509Z,60.25
2018-05-10T00:07:10.778Z,60.29
2018-05-10T00:09:37.035Z,60.36
2018-05-10T00:12:03.271Z,60.27
2018-05-10T00:14:29.666Z,59.91
2018-05-10T00:16:55.914Z,59.82
2018-05-10T00:19:22.127Z,59.94
2018-05-10T00:21:48.370Z,60.21
2018-05-10T00:24:14.594Z,60.11
2018-05-10T00:26:41.946Z,60.43
2018-05-10T00:29:08.426Z,60.41
2018-05-10T00:31:34.845Z,60.13
2018-05-10T00:34:01.428Z,60.09
2018-05-10T00:36:28.014Z,59.82
2018-05-10T00:38:54.558Z,59.91
2018-05-10T00:41:21.133Z,60.25
2018-05-10T00:43:47.697Z,60.22
2018-05-10T00:46:14.206Z,61.07
2018-05-10T00:48:40.731Z,61.17
2018-05-10T00:51:07.278Z,61.50
2018-05-10T00:53:33.898Z,61.40
2018-05-10T00:56:00.447Z,61.34
2018-05-10T00:58:27.026Z,61.14
2018-05-10T01:00:53.598Z,61.34
2018-05-10T01:03:20.121Z,60.91
2018-05-10T01:05:46.705Z,60.50
2018-05-10T01:08:13.192Z,60.40
2018-05-10T01:10:39.796Z,60.51
2018-05-10T01:13:06.091Z,60.29
2018-05-10T01:15:32.335Z,60.29
2018-05-10T01:17:59.657Z,60.35
2018-05-10T01:20:26.084Z,60.57
2018-05-10T01:22:52.318Z,60.65
2018-05-10T01:25:18.627Z,60.60
2018-05-10T01:27:44.843Z,60.97
2018-05-10T01:30:11.880Z,60.85
2018-05-10T01:32:38.187Z,60.77
2018-05-10T01:35:16.563Z,61.11
2018-05-10T01:37:42.810Z,60.80
2018-05-10T01:40:09.038Z,61.17
2018-05-10T01:42:35.277Z,61.32
2018-05-10T01:45:01.535Z,61.18
2018-05-10T01:47:27.792Z,61.08
2018-05-10T01:49:54.030Z,61.39
2018-05-10T01:52:20.254Z,61.35
2018-05-10T01:54:46.507Z,61.16
2018-05-10T01:57:12.739Z,60.91
2018-05-10T01:59:38.997Z,61.12
2018-05-10T02:02:05.263Z,60.99
2018-05-10T02:04:31.523Z,60.66
2018-05-10T02:06:57.828Z,61.28
2018-05-10T02:09:24.178Z,62.04
2018-05-10T02:11:50.409Z,62.54
2018-05-10T02:14:16.638Z,62.30
2018-05-10T02:16:42.889Z,62.40
2018-05-10T02:19:09.122Z,62.43
2018-05-10T02:21:35.414Z,62.46
2018-05-10T02:24:01.642Z,62.17
2018-05-10T02:26:27.899Z,62.23
2018-05-10T02:28:54.131Z,62.49
2018-05-10T02:31:20.395Z,62.61
2018-05-10T02:33:46.620Z,62.68
2018-05-10T02:36:12.846Z,62.45
2018-05-10T02:38:39.118Z,63.25
2018-05-10T02:41:05.345Z,64.01
2018-05-10T02:43:31.610Z,63.83
2018-05-10T02:45:57.851Z,63.27
2018-05-10T02:48:24.110Z,62.84
2018-05-10T02:50:50.342Z,62.75
2018-05-10T02:53:16.626Z,62.45
2018-05-10T02:55:42.866Z,62.32
2018-05-10T02:58:09.103Z,62.99
2018-05-10T03:00:35.367Z,63.00
2018-05-10T03:03:01.596Z,63.07
2018-05-10T03:05:27.838Z,63.07
2018-05-10T03:07:54.058Z,62.73
2018-05-10T03:10:20.307Z,62.48
2018-05-10T03:12:46.542Z,62.40
2018-05-10T03:15:12.762Z,62.36
2018-05-10T03:17:39.050Z,62.22
2018-05-10T03:20:05.277Z,62.44
2018-05-10T03:22:31.542Z,62.59
2018-05-10T03:24:57.749Z,62.18
2018-05-10T03:27:23.987Z,61.96
2018-05-10T03:29:50.250Z,61.91
2018-05-10T03:32:16.510Z,61.67
2018-05-10T03:34:42.747Z,61.75
2018-05-10T03:37:08.991Z,61.85
2018-05-10T03:39:35.506Z,61.97
2018-05-10T03:42:01.774Z,62.05
2018-05-10T03:44:29.159Z,62.24
2018-05-10T03:46:55.660Z,62.34
2018-05-10T03:49:22.274Z,62.18
2018-05-10T03:51:48.787Z,62.21
2018-05-10T03:54:15.386Z,61.96
2018-05-10T03:56:41.899Z,61.91
2018-05-10T03:59:08.532Z,61.52
2018-05-10T04:01:35.123Z,61.26
2018-05-10T04:04:27.444Z,60.85
2018-05-10T04:07:06.134Z,60.85
2018-05-10T04:09:44.735Z,60.83
2018-05-10T04:12:11.269Z,60.94
2018-05-10T04:14:37.521Z,61.60
2018-05-10T04:17:04.899Z,61.52
2018-05-10T04:19:31.126Z,61.76
2018-05-10T04:21:57.381Z,62.05
2018-05-10T04:24:23.606Z,62.03
2018-05-10T04:26:49.826Z,61.77
2018-05-10T04:29:16.097Z,61.64
2018-05-10T04:31:42.327Z,61.62
2018-05-10T04:34:08.579Z,61.39
2018-05-10T04:36:34.798Z,61.27
2018-05-10T04:39:01.030Z,60.74
2018-05-10T04:41:27.254Z,60.87
2018-05-10T04:43:53.489Z,60.32
2018-05-10T04:46:19.710Z,60.69
2018-05-10T04:48:45.936Z,60.53
2018-05-10T04:51:12.186Z,60.11
2018-05-10T04:53:38.397Z,60.07
2018-05-10T04:56:04.643Z,59.77
2018-05-10T04:58:30.870Z,59.85
2018-05-10T05:00:57.132Z,60.25
2018-05-10T05:03:23.394Z,60.38
2018-05-10T05:05:49.630Z,60.44
2018-05-10T05:08:15.859Z,60.81
2018-05-10T05:10:42.106Z,60.18
2018-05-10T05:13:08.362Z,60.39
2018-05-10T05:15:34.591Z,60.21
2018-05-10T05:18:00.847Z,60.22
2018-05-10T05:20:27.167Z,60.18
2018-05-10T05:22:53.423Z,59.87
2018-05-10T05:25:19.663Z,59.61
2018-05-10T05:27:45.932Z,59.36
2018-05-10T05:30:12.171Z,59.22
2018-05-10T05:32:38.411Z,58.92
2018-05-10T05:35:04.665Z,58.19
2018-05-10T05:37:30.896Z,58.02
2018-05-10T05:39:57.149Z,57.63
2018-05-10T05:42:23.421Z,57.65
2018-05-10T05:44:49.718Z,57.00
2018-05-10T05:47:16.089Z,56.95
2018-05-10T05:49:42.427Z,56.24
2018-05-10T05:52:08.701Z,56.15
2018-05-10T05:54:34.934Z,55.50
2018-05-10T05:57:01.180Z,54.76
2018-05-10T05:59:27.446Z,54.77
2018-05-10T06:01:53.698Z,54.52
2018-05-10T06:04:19.926Z,54.35
2018-05-10T06:06:46.207Z,54.03
2018-05-10T06:09:12.463Z,52.68
2018-05-10T06:11:38.731Z,52.84
2018-05-10T06:14:04.960Z,52.65
2018-05-10T06:16:31.200Z,52.73
2018-05-10T06:18:57.458Z,52.23
2018-05-10T06:21:23.739Z,52.09
2018-05-10T06:23:49.986Z,51.40
2018-05-10T06:26:16.209Z,50.99
2018-05-10T06:28:42.466Z,49.58
2018-05-10T06:31:08.699Z,49.99
2018-05-10T06:33:34.961Z,50.06
2018-05-10T06:36:01.195Z,49.82
2018-05-10T06:38:27.424Z,49.45
2018-05-10T06:40:53.666Z,49.56
2018-05-10T06:43:19.890Z,49.59
2018-05-10T06:45:46.249Z,49.53
2018-05-10T06:48:12.492Z,49.38
2018-05-10T06:50:38.761Z,48.67
2018-05-10T06:53:05.015Z,49.21
2018-05-10T06:55:31.278Z,48.26
2018-05-10T06:57:57.539Z,48.09
2018-05-10T07:00:23.786Z,48.59
2018-05-10T07:02:50.051Z,47.65
2018-05-10T07:05:16.339Z,47.48
2018-05-10T07:07:42.628Z,47.06
2018-05-10T07:10:08.854Z,46.90
2018-05-10T07:12:35.175Z,46.19
2018-05-10T07:15:01.409Z,45.57
2018-05-10T07:17:27.685Z,45.04
2018-05-10T07:19:53.942Z,45.27
2018-05-10T07:22:20.183Z,45.51
2018-05-10T07:24:46.446Z,44.30
2018-05-10T07:27:12.680Z,44.38
2018-05-10T07:29:38.923Z,44.37
2018-05-10T07:32:05.154Z,44.45
2018-05-10T07:34:31.404Z,44.12
2018-05-10T07:36:57.621Z,44.38
2018-05-10T07:39:23.850Z,43.71
2018-05-10T07:41:50.094Z,44.04
2018-05-10T07:44:16.308Z,44.10
2018-05-10T07:46:42.550Z,44.33
2018-05-10T07:49:08.787Z,44.14
2018-05-10T07:51:35.020Z,43.60
2018-05-10T07:54:01.249Z,43.12
2018-05-10T07:56:27.504Z,42.30
2018-05-10T07:58:53.728Z,42.42
2018-05-10T08:01:19.961Z,41.74
2018-05-10T08:03:46.225Z,41.32
2018-05-10T08:06:12.446Z,40.59
2018-05-10T08:08:38.685Z,40.11
2018-05-10T08:11:04.907Z,38.83
2018-05-10T08:13:31.237Z,38.60
2018-05-10T08:15:57.474Z,37.74
2018-05-10T08:18:23.798Z,38.01
2018-05-10T08:20:50.006Z,37.63
2018-05-10T08:23:16.235Z,37.43
2018-05-10T08:25:42.788Z,36.57
2018-05-10T08:28:09.353Z,36.53
2018-05-10T08:30:35.839Z,35.64
2018-05-10T08:33:02.497Z,35.00
2018-05-10T08:35:29.088Z,34.50
2018-05-10T08:37:55.770Z,33.52
2018-05-10T08:40:22.380Z,34.19
2018-05-10T08:42:48.871Z,34.39
2018-05-10T08:45:15.551Z,34.81
2018-05-10T08:47:42.073Z,35.51
2018-05-10T08:50:08.635Z,35.87
2018-05-10T08:52:35.986Z,36.44
2018-05-10T08:55:02.868Z,36.03
2018-05-10T08:57:29.273Z,35.76
2018-05-10T08:59:55.711Z,34.99
2018-05-10T09:02:22.141Z,34.44
2018-05-10T09:04:55.548Z,33.74
2018-05-10T09:07:22.052Z,32.85
2018-05-10T09:09:48.472Z,32.84
2018-05-10T09:12:15.030Z,32.81
2018-05-10T09:14:41.566Z,32.32
2018-05-10T09:17:08.137Z,31.85
2018-05-10T09:19:34.419Z,31.50
2018-05-10T09:22:00.707Z,31.10
2018-05-10T09:24:27.234Z,30.63
2018-05-10T09:26:53.800Z,29.88
2018-05-10T09:29:20.173Z,28.93
2018-05-10T09:31:46.446Z,28.62
2018-05-10T09:34:12.651Z,28.70
2018-05-10T09:36:38.886Z,28.37
2018-05-10T09:39:05.122Z,27.43
2018-05-10T09:41:31.371Z,28.64
2018-05-10T09:43:57.654Z,28.03
2018-05-10T09:46:23.875Z,27.94
2018-05-10T09:48:50.265Z,28.41
2018-05-10T09:51:16.474Z,28.66
2018-05-10T09:53:42.709Z,27.70
2018-05-10T09:56:09.187Z,27.63
2018-05-10T09:58:35.502Z,27.48
2018-05-10T10:01:01.757Z,27.42
2018-05-10T10:03:29.000Z,26.76
2018-05-10T10:05:55.267Z,26.63
2018-05-10T10:08:21.492Z,25.48
2018-05-10T10:10:47.730Z,25.77
2018-05-10T10:13:13.954Z,24.84
2018-05-10T10:15:40.246Z,24.52
2018-05-10T10:18:06.460Z,24.44
2018-05-10T10:20:32.710Z,24.69
2018-05-10T10:22:58.942Z,25.50
2018-05-10T10:25:25.215Z,25.95
2018-05-10T10:27:51.484Z,25.64
2018-05-10T10:30:17.719Z,25.56
2018-05-10T10:32:43.986Z,25.51
2018-05-10T10:35:10.217Z,25.00
2018-05-10T10:37:36.486Z,24.61
2018-05-10T10:40:02.792Z,24.86
2018-05-10T10:42:29.012Z,24.85
2018-05-10T10:44:55.269Z,25.61
2018-05-10T10:47:21.494Z,25.03
2018-05-10T10:49:47.750Z,25.41
2018-05-10T10:52:14.174Z,26.22
2018-05-10T10:54:40.432Z,27.22
2018-05-10T10:57:06.787Z,27.26
2018-05-10T10:59:33.026Z,26.62
2018-05-10T11:01:59.342Z,27.15
2018-05-10T11:04:25.613Z,26.91
2018-05-10T11:06:51.875Z,27.34
2018-05-10T11:09:18.544Z,28.15
2018-05-10T11:11:45.132Z,27.98
2018-05-10T11:14:12.727Z,27.78
2018-05-10T11:16:39.360Z,27.78
2018-05-10T11:19:05.879Z,27.30
2018-05-10T11:21:32.474Z,27.45
2018-05-10T11:23:59.110Z,27.07
2018-05-10T11:26:25.646Z,27.46
2018-05-10T11:28:52.307Z,27.81
2018-05-10T11:31:18.847Z,27.76
2018-05-10T11:33:45.414Z,26.87
2018-05-10T11:36:12.917Z,26.05
2018-05-10T11:38:39.417Z,25.31
2018-05-10T11:41:06.085Z,25.19
2018-05-10T11:43:32.335Z,25.04
2018-05-10T11:45:58.587Z,23.51
2018-05-10T11:48:25.040Z,23.93
2018-05-10T11:50:53.925Z,23.52
2018-05-10T11:53:20.280Z,22.96
2018-05-10T11:55:47.507Z,22.60
2018-05-10T11:58:13.751Z,21.99
2018-05-10T12:00:40.035Z,22.78
2018-05-10T12:03:06.350Z,23.13
2018-05-10T12:05:32.563Z,23.76
2018-05-10T12:07:58.797Z,23.69
2018-05-10T12:10:25.102Z,23.53
2018-05-10T12:12:51.375Z,22.64
2018-05-10T12:15:17.852Z,22.65
2018-05-10T12:17:44.111Z,21.59
2018-05-10T12:20:10.343Z,21.92
2018-05-10T12:22:36.561Z,21.60
2018-05-10T12:25:02.833Z,21.76
2018-05-10T12:27:29.185Z,20.56
2018-05-10T12:29:55.422Z,19.91
2018-05-10T12:32:21.626Z,19.96
2018-05-10T12:34:47.898Z,18.93
2018-05-10T12:37:14.216Z,19.19
2018-05-10T12:39:40.650Z,19.43
2018-05-10T12:42:06.867Z,19.34
2018-05-10T12:44:33.094Z,19.26
2018-05-10T12:46:59.351Z,19.06
2018-05-10T12:49:25.685Z,18.04
2018-05-10T12:51:52.032Z,17.32
2018-05-10T12:54:18.288Z,16.80
2018-05-10T12:56:44.531Z,16.49
2018-05-10T12:59:10.905Z,15.82
2018-05-10T13:01:37.164Z,15.58
2018-05-10T13:04:03.682Z,16.01
2018-05-10T13:06:29.985Z,15.55
2018-05-10T13:08:56.320Z,14.73
2018-05-10T13:11:22.551Z,15.26
2018-05-10T13:13:48.805Z,15.20
2018-05-10T13:16:15.203Z,15.27
2018-05-10T13:18:41.382Z,15.88
2018-05-10T13:21:07.759Z,17.67
2018-05-10T13:23:34.123Z,17.51
2018-05-10T13:26:00.414Z,19.60
2018-05-10T13:28:26.691Z,22.86
2018-05-10T13:30:52.990Z,24.94
2018-05-10T13:33:19.300Z,24.26
2018-05-10T13:35:45.608Z,23.90
2018-05-10T13:38:11.917Z,24.95
2018-05-10T13:40:38.195Z,25.93
2018-05-10T13:43:04.427Z,27.71
2018-05-10T13:45:30.767Z,29.47
2018-05-10T13:47:56.996Z,31.05
2018-05-10T13:50:23.241Z,32.26
2018-05-10T13:52:49.470Z,33.42
2018-05-10T13:55:15.707Z,34.83
2018-05-10T13:57:42.023Z,35.87
2018-05-10T14:00:08.292Z,36.44
2018-05-10T14:02:34.619Z,36.67
2018-05-10T14:05:00.931Z,36.43
2018-05-10T14:07:27.310Z,36.70
2018-05-10T14:09:53.668Z,37.32
2018-05-10T14:12:19.971Z,36.80
2018-05-10T14:14:46.231Z,37.73
2018-05-10T14:17:12.459Z,35.48
2018-05-10T14:19:38.726Z,35.29
2018-05-10T14:22:05.149Z,35.64
2018-05-10T14:24:31.368Z,35.95
2018-05-10T14:26:57.667Z,35.36
2018-05-10T14:29:24.055Z,34.95
2018-05-10T14:31:50.358Z,33.94
2018-05-10T14:34:16.615Z,33.11
2018-05-10T14:36:42.934Z,33.22
2018-05-10T14:39:09.247Z,34.44
2018-05-10T14:41:35.734Z,35.19
2018-05-10T14:44:02.027Z,35.74
2018-05-10T14:46:28.465Z,36.80
2018-05-10T14:48:54.692Z,35.66
2018-05-10T14:51:21.290Z,34.87
2018-05-10T14:53:47.599Z,35.21
2018-05-10T14:56:13.898Z,34.94
2018-05-10T14:58:40.138Z,35.00
2018-05-10T15:01:06.406Z,35.34
2018-05-10T15:03:32.648Z,35.26
2018-05-10T15:05:58.890Z,35.89
2018-05-10T15:08:25.219Z,35.49
2018-05-10T15:10:51.495Z,34.45
2018-05-10T15:13:17.856Z,34.59
2018-05-10T15:15:44.170Z,35.18
2018-05-10T15:18:10.523Z,35.55
2018-05-10T15:20:36.805Z,33.96
2018-05-10T15:23:03.095Z,34.55
2018-05-10T15:25:29.909Z,34.58
2018-05-10T15:27:56.425Z,35.41
2018-05-10T15:30:22.730Z,36.01
2018-05-10T15:32:49.149Z,36.31
2018-05-10T15:35:15.400Z,36.70
2018-05-10T15:37:41.747Z,36.98
2018-05-10T15:40:07.990Z,37.43
2018-05-10T15:42:34.306Z,36.49
2018-05-10T15:45:00.658Z,37.53
2018-05-10T15:47:27.169Z,36.63
2018-05-10T15:49:53.731Z,37.21
2018-05-10T15:52:20.452Z,37.47
2018-05-10T15:54:47.077Z,37.35
2018-05-10T15:57:13.486Z,36.72
2018-05-10T15:59:39.975Z,36.83
2018-05-10T16:02:06.382Z,38.14
2018-05-10T16:04:32.874Z,37.16
2018-05-10T16:06:59.302Z,38.53
2018-05-10T16:09:26.009Z,37.77
2018-05-10T16:11:52.618Z,37.83
2018-05-10T16:14:19.037Z,37.07
2018-05-10T16:16:45.472Z,36.63
2018-05-10T16:19:11.912Z,37.96
2018-05-10T16:21:38.407Z,38.56
2018-05-10T16:24:05.014Z,39.44
2018-05-10T16:26:32.602Z,38.98
2018-05-10T16:28:59.175Z,39.08
2018-05-10T16:31:25.835Z,38.37
2018-05-10T16:33:52.125Z,38.58
2018-05-10T16:36:18.463Z,38.28
2018-05-10T16:38:44.775Z,38.21
2018-05-10T16:41:11.062Z,40.18
2018-05-10T16:43:37.385Z,40.31
2018-05-10T16:46:03.631Z,40.32
2018-05-10T16:51:02.682Z,40.58
2018-05-10T16:53:29.024Z,40.54
2018-05-10T16:55:55.240Z,40.32
2018-05-10T16:58:21.540Z,40.48
2018-05-10T17:00:47.839Z,40.73
2018-05-10T17:03:14.178Z,40.81
2018-05-10T17:05:40.512Z,41.07
2018-05-10T17:08:06.752Z,41.62
2018-05-10T17:10:33.295Z,41.65
2018-05-10T17:12:59.586Z,41.67
2018-05-10T17:15:25.838Z,40.88
2018-05-10T17:17:52.078Z,40.66
2018-05-10T17:20:18.292Z,40.19
2018-05-10T17:22:44.575Z,40.18
2018-05-10T17:25:10.814Z,39.63
2018-05-10T17:27:37.095Z,39.78
2018-05-10T17:30:03.380Z,40.22
2018-05-10T17:32:29.648Z,41.16
2018-05-10T17:34:55.879Z,41.21
2018-05-10T17:37:22.162Z,41.53
2018-05-10T17:39:48.411Z,41.59
2018-05-10T17:42:14.638Z,41.76
2018-05-10T17:44:40.869Z,42.50
2018-05-10T17:47:07.131Z,42.56
2018-05-10T17:49:33.394Z,42.81
2018-05-10T17:51:59.678Z,43.13
2018-05-10T17:54:25.951Z,42.74
2018-05-10T17:56:52.188Z,43.13
2018-05-10T17:59:18.411Z,43.43
2018-05-10T18:01:44.671Z,43.92
2018-05-10T18:04:10.898Z,44.26
2018-05-10T18:06:37.169Z,44.58
2018-05-10T18:09:03.442Z,44.71
2018-05-10T18:11:29.691Z,44.64
2018-05-10T18:13:56.049Z,44.80
2018-05-10T18:16:22.201Z,44.61
2018-05-10T18:18:48.467Z,44.91
2018-05-10T18:21:14.715Z,45.06
2018-05-10T18:23:40.995Z,45.28
2018-05-10T18:26:07.232Z,45.91
2018-05-10T18:28:33.491Z,46.30
2018-05-10T18:30:59.779Z,46.41
2018-05-10T18:33:26.054Z,46.62
2018-05-10T18:35:52.381Z,46.78
2018-05-10T18:38:18.603Z,46.89
2018-05-10T18:40:44.928Z,46.98
2018-05-10T18:43:11.105Z,47.09
2018-05-10T18:45:37.355Z,47.53
2018-05-10T18:48:03.615Z,47.74
2018-05-10T18:50:29.956Z,47.86
2018-05-10T18:52:56.190Z,47.69
2018-05-10T18:55:22.419Z,47.58
2018-05-10T18:57:48.688Z,47.63
2018-05-10T19:00:14.924Z,47.90
2018-05-10T19:02:41.235Z,48.22
2018-05-10T19:05:07.498Z,48.00
2018-05-10T19:07:33.766Z,47.84
2018-05-10T19:10:00.002Z,48.40
2018-05-10T19:12:26.266Z,48.77
2018-05-10T19:14:52.506Z,48.78
2018-05-10T19:17:18.734Z,49.00
2018-05-10T19:19:45.159Z,49.40
2018-05-10T19:22:11.402Z,49.86
2018-05-10T19:24:37.654Z,49.91
2018-05-10T19:27:03.888Z,49.84
2018-05-10T19:29:30.317Z,50.02
2018-05-10T19:31:56.612Z,50.36
2018-05-10T19:34:22.850Z,50.37
2018-05-10T19:36:49.098Z,50.91
2018-05-10T19:39:15.430Z,51.15
2018-05-10T19:41:41.684Z,51.23
2018-05-10T19:44:08.107Z,51.30
2018-05-10T19:46:34.382Z,51.26
2018-05-10T19:49:00.618Z,51.22
2018-05-10T19:51:27.027Z,51.15
2018-05-10T19:53:53.259Z,51.20
2018-05-10T19:56:19.564Z,51.23
2018-05-10T19:58:45.903Z,51.25
2018-05-10T20:01:12.139Z,51.27
2018-05-10T20:03:38.827Z,51.25
2018-05-10T20:06:05.215Z,51.51
2018-05-10T20:08:31.649Z,51.52
2018-05-10T20:10:57.938Z,51.60
2018-05-10T20:13:24.227Z,51.85
2018-05-10T20:15:50.889Z,52.15
2018-05-10T20:18:17.147Z,53.09
2018-05-10T20:20:43.476Z,53.45
2018-05-10T20:23:09.879Z,54.05
2018-05-10T20:25:36.122Z,53.78
2018-05-10T20:28:02.669Z,54.00
2018-05-10T20:30:28.966Z,54.37
2018-05-10T20:32:55.212Z,54.43
2018-05-10T20:35:21.638Z,54.77
2018-05-10T20:37:47.886Z,54.98
2018-05-10T20:40:14.352Z,55.37
2018-05-10T20:42:40.635Z,55.81
2018-05-10T20:45:06.862Z,55.48
2018-05-10T20:47:33.114Z,55.43
2018-05-10T20:49:59.546Z,55.33
2018-05-10T20:52:25.810Z,55.51
2018-05-10T20:54:52.328Z,55.67
2018-05-10T20:57:18.652Z,55.59
2018-05-10T20:59:44.903Z,55.47
2018-05-10T21:02:11.354Z,54.74
2018-05-10T21:04:37.611Z,54.99
2018-05-10T21:07:04.005Z,54.97
2018-05-10T21:09:30.290Z,54.59
2018-05-10T21:11:56.511Z,54.31
2018-05-10T21:14:23.024Z,54.00
2018-05-10T21:16:49.591Z,54.07
2018-05-10T21:19:15.846Z,53.78
2018-05-10T21:21:42.179Z,53.69
2018-05-10T21:24:08.484Z,53.16
2018-05-10T21:26:34.759Z,53.33
2018-05-10T21:29:01.240Z,53.34
2018-05-10T21:31:27.495Z,53.30
2018-05-10T21:33:53.816Z,53.71
2018-05-10T21:36:20.067Z,53.95
2018-05-10T21:38:46.329Z,53.60
2018-05-10T21:41:12.786Z,53.26
2018-05-10T21:43:39.047Z,53.05
2018-05-10T21:46:05.274Z,53.02
2018-05-10T21:48:31.690Z,52.88
2018-05-10T21:50:58.002Z,53.15
2018-05-10T21:53:24.260Z,53.30
2018-05-10T21:55:50.880Z,53.08
2018-05-10T21:58:17.126Z,53.48
2018-05-10T22:00:43.498Z,53.33
2018-05-10T22:03:09.895Z,53.40
2018-05-10T22:05:36.156Z,52.90
2018-05-10T22:08:02.705Z,53.29
2018-05-10T22:10:28.974Z,53.55
2018-05-10T22:12:55.234Z,53.79
2018-05-10T22:15:21.724Z,53.45
2018-05-10T22:17:47.968Z,53.39
2018-05-10T22:20:14.537Z,53.80
2018-05-10T22:22:40.863Z,54.36
2018-05-10T22:25:07.131Z,54.77
2018-05-10T22:27:33.606Z,55.07
2018-05-10T22:30:00.178Z,55.27
2018-05-10T22:32:26.830Z,55.71
2018-05-10T22:34:53.162Z,55.79
2018-05-10T22:37:19.450Z,55.64
2018-05-10T22:39:45.821Z,55.53
2018-05-10T22:42:12.143Z,55.64
2018-05-10T22:44:38.659Z,55.70
2018-05-10T22:47:04.899Z,55.48
2018-05-10T22:49:31.248Z,55.58
2018-05-10T22:51:57.737Z,55.53
2018-05-10T22:54:24.058Z,55.60
2018-05-10T22:56:50.568Z,55.57
2018-05-10T22:59:16.837Z,55.55
2018-05-10T23:01:43.151Z,55.40
2018-05-10T23:04:09.716Z,55.54
2018-05-10T23:06:36.039Z,55.52
2018-05-10T23:09:02.596Z,55.85
2018-05-10T23:11:28.919Z,55.82
2018-05-10T23:13:55.602Z,55.83
2018-05-10T23:16:22.082Z,55.81
2018-05-10T23:18:48.327Z,55.56
2018-05-10T23:21:14.973Z,55.56
2018-05-10T23:23:41.269Z,55.84
2018-05-10T23:26:07.607Z,56.18
2018-05-10T23:28:34.010Z,56.60
2018-05-10T23:31:00.227Z,57.03
2018-05-10T23:33:26.851Z,56.86
2018-05-10T23:35:53.098Z,57.07
2018-05-10T23:38:19.355Z,57.11
2018-05-10T23:40:45.843Z,56.84
2018-05-10T23:43:12.096Z,56.94
2018-05-10T23:45:38.592Z,57.51
2018-05-10T23:48:04.865Z,57.65
2018-05-10T23:50:31.114Z,58.02
2018-05-10T23:52:57.622Z,58.01
2018-05-10T23:55:23.874Z,59.06
2018-05-10T23:57:50.325Z,60.12
